sensor_id;sensor_type;location;lat;lon;timestamp;P1;durP1;ratioP1;P2;durP2;ratioP2
68507;SDS011;55510;49.560;19.090;2022-12-18T07:27:51;39.88;;;17.40;;
68507;SDS011;55510;49.560;19.090;2022-12-18T07:30:53;48.75;;;20.52;;
68507;SDS011;55510;49.560;19.090;2022-12-18T07:33:53;43.60;;;20.47;;
68507;SDS011;55510;49.560;19.090;2022-12-18T07:36:54;43.08;;;20.42;;
68507;SDS011;55510;49.560;19.090;2022-12-18T07:39:55;53.13;;;18.93;;
68507;SDS011;55510;49.560;19.090;2022-12-18T07:42:56;52.15;;;20.60;;
68507;SDS011;55510;49.560;19.090;2022-12-18T07:45:56;70.13;;;24.87;;
68507;SDS011;55510;49.560;19.090;2022-12-18T07:48:57;61.60;;;23.77;;
68507;SDS011;55510;49.560;19.090;2022-12-18T07:51:58;60.80;;;24.17;;
68507;SDS011;55510;49.560;19.090;2022-12-18T07:54:58;74.63;;;24.67;;
68507;SDS011;55510;49.560;19.090;2022-12-18T07:58:03;56.97;;;24.73;;
68507;SDS011;55510;49.560;19.090;2022-12-18T08:01:09;60.53;;;23.37;;
68507;SDS011;55510;49.560;19.090;2022-12-18T08:04:11;82.40;;;28.65;;
68507;SDS011;55510;49.560;19.090;2022-12-18T08:07:12;82.78;;;27.55;;
68507;SDS011;55510;49.560;19.090;2022-12-18T08:10:13;64.25;;;25.08;;
68507;SDS011;55510;49.560;19.090;2022-12-18T08:13:14;60.93;;;25.57;;
68507;SDS011;55510;49.560;19.090;2022-12-18T08:16:14;68.75;;;24.13;;
68507;SDS011;55510;49.560;19.090;2022-12-18T08:19:15;62.43;;;24.63;;
68507;SDS011;55510;49.560;19.090;2022-12-18T08:22:16;67.90;;;24.85;;
68507;SDS011;55510;49.560;19.090;2022-12-18T08:25:16;63.67;;;24.13;;
68507;SDS011;55510;49.560;19.090;2022-12-18T08:28:17;59.60;;;24.15;;
68507;SDS011;55510;49.560;19.090;2022-12-18T08:31:18;48.57;;;18.60;;
68507;SDS011;55510;49.560;19.090;2022-12-18T08:34:19;59.75;;;22.20;;
68507;SDS011;55510;49.560;19.090;2022-12-18T08:37:20;66.13;;;22.35;;
68507;SDS011;55510;49.560;19.090;2022-12-18T08:40:21;64.67;;;23.03;;
68507;SDS011;55510;49.560;19.090;2022-12-18T08:43:22;73.43;;;25.80;;
68507;SDS011;55510;49.560;19.090;2022-12-18T08:46:41;75.20;;;26.33;;
68507;SDS011;55510;49.560;19.090;2022-12-18T08:49:43;64.17;;;26.60;;
68507;SDS011;55510;49.560;19.090;2022-12-18T08:52:43;78.40;;;28.90;;
68507;SDS011;55510;49.560;19.090;2022-12-18T08:55:44;80.93;;;29.57;;
68507;SDS011;55510;49.560;19.090;2022-12-18T08:58:45;87.83;;;35.17;;
68507;SDS011;55510;49.560;19.090;2022-12-18T09:01:47;83.28;;;32.75;;
68507;SDS011;55510;49.560;19.090;2022-12-18T09:04:48;75.50;;;31.38;;
68507;SDS011;55510;49.560;19.090;2022-12-18T09:07:49;76.68;;;30.38;;
68507;SDS011;55510;49.560;19.090;2022-12-18T09:10:49;76.23;;;29.50;;
68507;SDS011;55510;49.560;19.090;2022-12-18T09:13:51;65.82;;;28.48;;
68507;SDS011;55510;49.560;19.090;2022-12-18T09:16:52;53.63;;;21.13;;
68507;SDS011;55510;49.560;19.090;2022-12-18T09:19:53;46.87;;;14.13;;
68507;SDS011;55510;49.560;19.090;2022-12-18T09:22:54;40.97;;;13.88;;
68507;SDS011;55510;49.560;19.090;2022-12-18T09:25:58;45.93;;;14.13;;
68507;SDS011;55510;49.560;19.090;2022-12-18T09:28:59;40.33;;;12.73;;
68507;SDS011;55510;49.560;19.090;2022-12-18T09:32:00;35.60;;;11.38;;
68507;SDS011;55510;49.560;19.090;2022-12-18T09:35:01;45.07;;;14.03;;
68507;SDS011;55510;49.560;19.090;2022-12-18T09:38:02;45.90;;;13.02;;
68507;SDS011;55510;49.560;19.090;2022-12-18T09:41:13;38.03;;;13.50;;
68507;SDS011;55510;49.560;19.090;2022-12-18T09:47:23;42.13;;;13.40;;
68507;SDS011;55510;49.560;19.090;2022-12-18T09:50:32;49.83;;;13.00;;
68507;SDS011;55510;49.560;19.090;2022-12-18T09:53:37;45.55;;;14.50;;
68507;SDS011;55510;49.560;19.090;2022-12-18T09:56:42;43.92;;;14.48;;
68507;SDS011;55510;49.560;19.090;2022-12-18T09:59:44;48.10;;;15.70;;
68507;SDS011;55510;49.560;19.090;2022-12-18T10:02:53;44.03;;;15.85;;
68507;SDS011;55510;49.560;19.090;2022-12-18T10:06:07;41.43;;;14.23;;
68507;SDS011;55510;49.560;19.090;2022-12-18T10:12:33;55.10;;;19.38;;
68507;SDS011;55510;49.560;19.090;2022-12-18T10:15:51;56.75;;;20.35;;
68507;SDS011;55510;49.560;19.090;2022-12-18T10:28:47;44.75;;;15.68;;
68507;SDS011;55510;49.560;19.090;2022-12-18T10:31:48;51.37;;;16.17;;
68507;SDS011;55510;49.560;19.090;2022-12-18T10:34:50;51.70;;;17.20;;
68507;SDS011;55510;49.560;19.090;2022-12-18T10:44:22;60.13;;;21.87;;
68507;SDS011;55510;49.560;19.090;2022-12-18T10:47:27;54.77;;;19.27;;
68507;SDS011;55510;49.560;19.090;2022-12-18T10:50:29;52.58;;;18.08;;
68507;SDS011;55510;49.560;19.090;2022-12-18T10:53:33;51.73;;;19.67;;
68507;SDS011;55510;49.560;19.090;2022-12-18T10:56:36;75.45;;;23.10;;
68507;SDS011;55510;49.560;19.090;2022-12-18T10:59:49;81.85;;;32.35;;
68507;SDS011;55510;49.560;19.090;2022-12-18T11:02:55;70.15;;;24.95;;
68507;SDS011;55510;49.560;19.090;2022-12-18T11:06:04;68.45;;;27.77;;
68507;SDS011;55510;49.560;19.090;2022-12-18T11:09:19;56.77;;;21.20;;
68507;SDS011;55510;49.560;19.090;2022-12-18T11:12:21;57.55;;;20.17;;
68507;SDS011;55510;49.560;19.090;2022-12-18T11:15:27;67.00;;;22.70;;
68507;SDS011;55510;49.560;19.090;2022-12-18T11:18:34;51.17;;;17.95;;
68507;SDS011;55510;49.560;19.090;2022-12-18T11:21:39;58.65;;;20.42;;
68507;SDS011;55510;49.560;19.090;2022-12-18T11:24:42;79.70;;;26.57;;
68507;SDS011;55510;49.560;19.090;2022-12-18T11:27:47;70.28;;;25.63;;
68507;SDS011;55510;49.560;19.090;2022-12-18T11:31:08;67.47;;;21.92;;
68507;SDS011;55510;49.560;19.090;2022-12-18T11:37:14;68.75;;;22.88;;
68507;SDS011;55510;49.560;19.090;2022-12-18T11:40:20;69.20;;;23.25;;
68507;SDS011;55510;49.560;19.090;2022-12-18T11:43:36;62.17;;;22.35;;
68507;SDS011;55510;49.560;19.090;2022-12-18T11:46:52;69.75;;;24.40;;
68507;SDS011;55510;49.560;19.090;2022-12-18T11:50:01;78.83;;;27.87;;
68507;SDS011;55510;49.560;19.090;2022-12-18T11:53:11;79.00;;;28.33;;
68507;SDS011;55510;49.560;19.090;2022-12-18T11:56:27;98.60;;;33.47;;
68507;SDS011;55510;49.560;19.090;2022-12-18T12:19:15;73.15;;;26.55;;
68507;SDS011;55510;49.560;19.090;2022-12-18T12:25:52;79.70;;;27.70;;
68507;SDS011;55510;49.560;19.090;2022-12-18T12:38:35;70.70;;;24.20;;
68507;SDS011;55510;49.560;19.090;2022-12-18T12:41:43;77.13;;;27.33;;
68507;SDS011;55510;49.560;19.090;2022-12-18T12:45:05;78.28;;;29.52;;
68507;SDS011;55510;49.560;19.090;2022-12-18T12:48:16;75.60;;;27.60;;
68507;SDS011;55510;49.560;19.090;2022-12-18T12:51:40;73.65;;;26.17;;
68507;SDS011;55510;49.560;19.090;2022-12-18T12:54:44;92.13;;;31.80;;
68507;SDS011;55510;49.560;19.090;2022-12-18T13:01:44;82.10;;;28.80;;
68507;SDS011;55510;49.560;19.090;2022-12-18T13:07:52;94.07;;;30.35;;
68507;SDS011;55510;49.560;19.090;2022-12-18T13:10:59;89.27;;;31.60;;
68507;SDS011;55510;49.560;19.090;2022-12-18T13:14:20;101.53;;;32.53;;
68507;SDS011;55510;49.560;19.090;2022-12-18T13:17:29;100.80;;;32.78;;
68507;SDS011;55510;49.560;19.090;2022-12-18T13:20:37;94.35;;;29.23;;
68507;SDS011;55510;49.560;19.090;2022-12-18T13:23:38;84.45;;;26.92;;
68507;SDS011;55510;49.560;19.090;2022-12-18T13:26:40;97.33;;;30.10;;
68507;SDS011;55510;49.560;19.090;2022-12-18T13:32:43;98.53;;;36.13;;
68507;SDS011;55510;49.560;19.090;2022-12-18T13:38:55;83.25;;;27.42;;
68507;SDS011;55510;49.560;19.090;2022-12-18T13:45:39;84.67;;;28.00;;
68507;SDS011;55510;49.560;19.090;2022-12-18T13:48:43;83.10;;;27.00;;
68507;SDS011;55510;49.560;19.090;2022-12-18T13:51:52;66.18;;;22.00;;
68507;SDS011;55510;49.560;19.090;2022-12-18T13:54:56;69.82;;;23.05;;
68507;SDS011;55510;49.560;19.090;2022-12-18T13:58:03;63.60;;;21.85;;
68507;SDS011;55510;49.560;19.090;2022-12-18T14:01:05;69.17;;;24.83;;
68507;SDS011;55510;49.560;19.090;2022-12-18T14:04:26;66.75;;;22.13;;
68507;SDS011;55510;49.560;19.090;2022-12-18T14:07:28;60.30;;;20.77;;
68507;SDS011;55510;49.560;19.090;2022-12-18T14:10:30;63.10;;;22.42;;
68507;SDS011;55510;49.560;19.090;2022-12-18T14:13:32;62.15;;;22.70;;
68507;SDS011;55510;49.560;19.090;2022-12-18T14:16:37;68.60;;;26.93;;
68507;SDS011;55510;49.560;19.090;2022-12-18T14:19:41;69.28;;;26.13;;
68507;SDS011;55510;49.560;19.090;2022-12-18T14:22:45;61.25;;;22.75;;
68507;SDS011;55510;49.560;19.090;2022-12-18T14:25:47;88.25;;;28.77;;
68507;SDS011;55510;49.560;19.090;2022-12-18T14:28:48;87.93;;;31.60;;
68507;SDS011;55510;49.560;19.090;2022-12-18T14:35:12;119.85;;;39.50;;
68507;SDS011;55510;49.560;19.090;2022-12-18T14:41:36;213.77;;;62.07;;
68507;SDS011;55510;49.560;19.090;2022-12-18T14:44:39;216.93;;;70.57;;
68507;SDS011;55510;49.560;19.090;2022-12-18T14:47:42;216.48;;;72.47;;
68507;SDS011;55510;49.560;19.090;2022-12-18T14:50:43;281.13;;;94.53;;
68507;SDS011;55510;49.560;19.090;2022-12-18T14:53:46;225.07;;;78.07;;
68507;SDS011;55510;49.560;19.090;2022-12-18T14:56:49;189.32;;;67.18;;
68507;SDS011;55510;49.560;19.090;2022-12-18T15:00:06;218.20;;;74.07;;
68507;SDS011;55510;49.560;19.090;2022-12-18T15:03:17;173.50;;;58.63;;
68507;SDS011;55510;49.560;19.090;2022-12-18T15:06:36;184.77;;;62.55;;
68507;SDS011;55510;49.560;19.090;2022-12-18T15:09:40;165.83;;;57.07;;
68507;SDS011;55510;49.560;19.090;2022-12-18T15:16:03;194.20;;;66.40;;
68507;SDS011;55510;49.560;19.090;2022-12-18T15:19:04;180.07;;;60.38;;
68507;SDS011;55510;49.560;19.090;2022-12-18T15:22:16;151.00;;;58.20;;
68507;SDS011;55510;49.560;19.090;2022-12-18T15:25:34;152.07;;;51.58;;
68507;SDS011;55510;49.560;19.090;2022-12-18T15:32:03;184.73;;;58.55;;
68507;SDS011;55510;49.560;19.090;2022-12-18T15:35:13;186.00;;;56.80;;
68507;SDS011;55510;49.560;19.090;2022-12-18T15:38:15;162.10;;;56.93;;
68507;SDS011;55510;49.560;19.090;2022-12-18T15:41:17;178.27;;;59.63;;
68507;SDS011;55510;49.560;19.090;2022-12-18T15:44:25;155.13;;;57.00;;
68507;SDS011;55510;49.560;19.090;2022-12-18T15:47:26;193.02;;;67.10;;
68507;SDS011;55510;49.560;19.090;2022-12-18T15:50:28;185.20;;;65.93;;
68507;SDS011;55510;49.560;19.090;2022-12-18T15:53:30;181.13;;;59.13;;
68507;SDS011;55510;49.560;19.090;2022-12-18T15:56:33;185.73;;;64.78;;
68507;SDS011;55510;49.560;19.090;2022-12-18T15:59:53;159.75;;;54.67;;
68507;SDS011;55510;49.560;19.090;2022-12-18T16:02:56;177.63;;;61.37;;
68507;SDS011;55510;49.560;19.090;2022-12-18T16:05:57;174.65;;;65.30;;
68507;SDS011;55510;49.560;19.090;2022-12-18T16:09:00;180.20;;;62.95;;
68507;SDS011;55510;49.560;19.090;2022-12-18T16:12:01;189.27;;;65.63;;
68507;SDS011;55510;49.560;19.090;2022-12-18T16:15:02;181.23;;;69.97;;
68507;SDS011;55510;49.560;19.090;2022-12-18T16:18:05;233.63;;;76.70;;
68507;SDS011;55510;49.560;19.090;2022-12-18T16:21:05;222.02;;;77.45;;
68507;SDS011;55510;49.560;19.090;2022-12-18T16:24:12;241.23;;;83.43;;
68507;SDS011;55510;49.560;19.090;2022-12-18T16:27:15;218.02;;;79.70;;
68507;SDS011;55510;49.560;19.090;2022-12-18T16:30:19;238.90;;;90.73;;
68507;SDS011;55510;49.560;19.090;2022-12-18T16:33:21;230.25;;;81.95;;
68507;SDS011;55510;49.560;19.090;2022-12-18T16:36:22;188.57;;;69.27;;
68507;SDS011;55510;49.560;19.090;2022-12-18T16:39:23;169.45;;;58.08;;
68507;SDS011;55510;49.560;19.090;2022-12-18T16:42:23;135.02;;;53.45;;
68507;SDS011;55510;49.560;19.090;2022-12-18T16:45:27;142.40;;;52.87;;
68507;SDS011;55510;49.560;19.090;2022-12-18T16:48:33;116.70;;;46.45;;
68507;SDS011;55510;49.560;19.090;2022-12-18T16:51:34;161.45;;;59.97;;
68507;SDS011;55510;49.560;19.090;2022-12-18T16:54:34;172.77;;;66.05;;
68507;SDS011;55510;49.560;19.090;2022-12-18T16:57:36;247.48;;;88.50;;
68507;SDS011;55510;49.560;19.090;2022-12-18T17:00:39;240.15;;;83.60;;
68507;SDS011;55510;49.560;19.090;2022-12-18T17:03:40;152.87;;;57.97;;
68507;SDS011;55510;49.560;19.090;2022-12-18T17:06:42;153.70;;;57.83;;
68507;SDS011;55510;49.560;19.090;2022-12-18T17:09:44;165.87;;;64.90;;
68507;SDS011;55510;49.560;19.090;2022-12-18T17:12:45;173.63;;;63.30;;
68507;SDS011;55510;49.560;19.090;2022-12-18T17:15:45;207.40;;;64.50;;
68507;SDS011;55510;49.560;19.090;2022-12-18T17:18:46;189.55;;;66.28;;
68507;SDS011;55510;49.560;19.090;2022-12-18T17:21:48;155.87;;;61.70;;
68507;SDS011;55510;49.560;19.090;2022-12-18T17:24:49;180.52;;;64.93;;
68507;SDS011;55510;49.560;19.090;2022-12-18T17:27:50;174.23;;;63.03;;
68507;SDS011;55510;49.560;19.090;2022-12-18T17:30:51;181.40;;;71.53;;
68507;SDS011;55510;49.560;19.090;2022-12-18T17:33:53;189.00;;;66.85;;
68507;SDS011;55510;49.560;19.090;2022-12-18T17:36:54;177.33;;;66.50;;
68507;SDS011;55510;49.560;19.090;2022-12-18T17:39:55;167.77;;;63.40;;
68507;SDS011;55510;49.560;19.090;2022-12-18T17:42:55;185.70;;;64.37;;
68507;SDS011;55510;49.560;19.090;2022-12-18T17:46:00;162.63;;;66.80;;
68507;SDS011;55510;49.560;19.090;2022-12-18T17:49:02;164.40;;;55.07;;
68507;SDS011;55510;49.560;19.090;2022-12-18T17:52:03;152.57;;;52.40;;
68507;SDS011;55510;49.560;19.090;2022-12-18T17:55:04;176.45;;;64.00;;
68507;SDS011;55510;49.560;19.090;2022-12-18T17:58:06;130.20;;;55.97;;
68507;SDS011;55510;49.560;19.090;2022-12-18T18:01:07;117.45;;;46.20;;
68507;SDS011;55510;49.560;19.090;2022-12-18T18:04:08;119.43;;;43.40;;
68507;SDS011;55510;49.560;19.090;2022-12-18T18:07:08;117.40;;;43.90;;
68507;SDS011;55510;49.560;19.090;2022-12-18T18:10:13;129.63;;;53.75;;
68507;SDS011;55510;49.560;19.090;2022-12-18T18:17:01;117.68;;;42.85;;
68507;SDS011;55510;49.560;19.090;2022-12-18T18:20:02;106.97;;;39.80;;
68507;SDS011;55510;49.560;19.090;2022-12-18T18:23:03;119.50;;;45.10;;
68507;SDS011;55510;49.560;19.090;2022-12-18T18:26:04;112.57;;;39.03;;
68507;SDS011;55510;49.560;19.090;2022-12-18T18:29:16;124.30;;;47.17;;
68507;SDS011;55510;49.560;19.090;2022-12-18T18:32:19;101.15;;;42.88;;
68507;SDS011;55510;49.560;19.090;2022-12-18T18:35:20;124.63;;;49.08;;
68507;SDS011;55510;49.560;19.090;2022-12-18T18:38:21;113.80;;;52.77;;
68507;SDS011;55510;49.560;19.090;2022-12-18T18:41:22;112.55;;;49.80;;
68507;SDS011;55510;49.560;19.090;2022-12-18T18:44:23;141.17;;;53.60;;
68507;SDS011;55510;49.560;19.090;2022-12-18T18:47:24;130.25;;;52.63;;
68507;SDS011;55510;49.560;19.090;2022-12-18T18:50:25;146.13;;;57.50;;
68507;SDS011;55510;49.560;19.090;2022-12-18T18:53:26;173.82;;;65.78;;
68507;SDS011;55510;49.560;19.090;2022-12-18T18:56:27;195.05;;;72.63;;
68507;SDS011;55510;49.560;19.090;2022-12-18T18:59:28;143.67;;;63.07;;
68507;SDS011;55510;49.560;19.090;2022-12-18T19:02:29;171.87;;;68.57;;
68507;SDS011;55510;49.560;19.090;2022-12-18T19:05:32;162.43;;;60.15;;
68507;SDS011;55510;49.560;19.090;2022-12-18T19:08:34;155.40;;;60.35;;
68507;SDS011;55510;49.560;19.090;2022-12-18T19:11:37;147.48;;;62.85;;
68507;SDS011;55510;49.560;19.090;2022-12-18T19:14:57;134.27;;;52.13;;
68507;SDS011;55510;49.560;19.090;2022-12-18T19:17:58;138.60;;;53.78;;
68507;SDS011;55510;49.560;19.090;2022-12-18T19:21:03;162.40;;;55.00;;
68507;SDS011;55510;49.560;19.090;2022-12-18T19:24:05;135.25;;;57.92;;
68507;SDS011;55510;49.560;19.090;2022-12-18T19:27:06;163.93;;;57.17;;
68507;SDS011;55510;49.560;19.090;2022-12-18T19:30:07;165.33;;;64.57;;
68507;SDS011;55510;49.560;19.090;2022-12-18T19:33:08;160.85;;;63.72;;
68507;SDS011;55510;49.560;19.090;2022-12-18T19:36:19;120.63;;;53.10;;
68507;SDS011;55510;49.560;19.090;2022-12-18T19:39:25;135.73;;;46.30;;
68507;SDS011;55510;49.560;19.090;2022-12-18T19:42:26;138.30;;;57.20;;
68507;SDS011;55510;49.560;19.090;2022-12-18T19:45:26;138.10;;;52.93;;
68507;SDS011;55510;49.560;19.090;2022-12-18T19:48:27;174.18;;;57.83;;
68507;SDS011;55510;49.560;19.090;2022-12-18T19:51:29;158.03;;;68.90;;
68507;SDS011;55510;49.560;19.090;2022-12-18T19:54:30;170.90;;;63.15;;
68507;SDS011;55510;49.560;19.090;2022-12-18T19:57:31;170.73;;;69.20;;
68507;SDS011;55510;49.560;19.090;2022-12-18T20:00:32;193.75;;;76.93;;
68507;SDS011;55510;49.560;19.090;2022-12-18T20:03:32;187.10;;;77.73;;
68507;SDS011;55510;49.560;19.090;2022-12-18T20:06:49;188.43;;;69.20;;
68507;SDS011;55510;49.560;19.090;2022-12-18T20:09:52;122.45;;;44.97;;
68507;SDS011;55510;49.560;19.090;2022-12-18T20:12:52;122.80;;;44.53;;
68507;SDS011;55510;49.560;19.090;2022-12-18T20:15:53;122.20;;;46.93;;
68507;SDS011;55510;49.560;19.090;2022-12-18T20:18:54;133.90;;;48.97;;
68507;SDS011;55510;49.560;19.090;2022-12-18T20:21:55;108.10;;;40.28;;
68507;SDS011;55510;49.560;19.090;2022-12-18T20:24:56;107.50;;;41.63;;
68507;SDS011;55510;49.560;19.090;2022-12-18T20:27:57;109.18;;;38.33;;
68507;SDS011;55510;49.560;19.090;2022-12-18T20:31:01;100.53;;;48.10;;
68507;SDS011;55510;49.560;19.090;2022-12-18T20:34:03;144.73;;;53.22;;
68507;SDS011;55510;49.560;19.090;2022-12-18T20:37:04;112.43;;;46.60;;
68507;SDS011;55510;49.560;19.090;2022-12-18T20:40:05;107.20;;;44.37;;
68507;SDS011;55510;49.560;19.090;2022-12-18T20:43:06;111.05;;;43.80;;
68507;SDS011;55510;49.560;19.090;2022-12-18T20:46:08;82.35;;;37.15;;
68507;SDS011;55510;49.560;19.090;2022-12-18T20:49:11;91.35;;;32.17;;
68507;SDS011;55510;49.560;19.090;2022-12-18T20:52:11;94.15;;;33.47;;
68507;SDS011;55510;49.560;19.090;2022-12-18T20:55:12;75.82;;;29.02;;
68507;SDS011;55510;49.560;19.090;2022-12-18T20:58:13;74.72;;;31.70;;
68507;SDS011;55510;49.560;19.090;2022-12-18T21:01:15;70.93;;;31.20;;
68507;SDS011;55510;49.560;19.090;2022-12-18T21:04:17;77.20;;;29.13;;
68507;SDS011;55510;49.560;19.090;2022-12-18T21:07:20;114.80;;;45.08;;
68507;SDS011;55510;49.560;19.090;2022-12-18T21:10:21;102.47;;;40.37;;
68507;SDS011;55510;49.560;19.090;2022-12-18T21:13:21;106.30;;;41.25;;
68507;SDS011;55510;49.560;19.090;2022-12-18T21:16:22;79.85;;;31.42;;
68507;SDS011;55510;49.560;19.090;2022-12-18T21:19:24;74.10;;;29.85;;
68507;SDS011;55510;49.560;19.090;2022-12-18T21:22:26;78.13;;;31.92;;
68507;SDS011;55510;49.560;19.090;2022-12-18T21:25:28;76.53;;;26.70;;
68507;SDS011;55510;49.560;19.090;2022-12-18T21:28:29;60.70;;;22.37;;
68507;SDS011;55510;49.560;19.090;2022-12-18T21:31:32;72.55;;;27.70;;
68507;SDS011;55510;49.560;19.090;2022-12-18T21:34:33;78.95;;;26.35;;
68507;SDS011;55510;49.560;19.090;2022-12-18T21:37:34;71.33;;;29.13;;
68507;SDS011;55510;49.560;19.090;2022-12-18T21:40:35;90.05;;;30.60;;
68507;SDS011;55510;49.560;19.090;2022-12-18T21:43:38;57.17;;;24.07;;
68507;SDS011;55510;49.560;19.090;2022-12-18T21:46:57;64.15;;;24.10;;
68507;SDS011;55510;49.560;19.090;2022-12-18T21:49:58;74.05;;;25.67;;
68507;SDS011;55510;49.560;19.090;2022-12-18T21:52:59;65.87;;;22.27;;
68507;SDS011;55510;49.560;19.090;2022-12-18T21:56:00;69.70;;;25.08;;
68507;SDS011;55510;49.560;19.090;2022-12-18T21:59:01;69.23;;;25.57;;
68507;SDS011;55510;49.560;19.090;2022-12-18T22:02:03;55.25;;;23.55;;
68507;SDS011;55510;49.560;19.090;2022-12-18T22:05:10;74.57;;;26.92;;
68507;SDS011;55510;49.560;19.090;2022-12-18T22:08:10;90.63;;;33.72;;
68507;SDS011;55510;49.560;19.090;2022-12-18T22:11:11;65.18;;;31.27;;
68507;SDS011;55510;49.560;19.090;2022-12-18T22:14:12;67.60;;;25.42;;
68507;SDS011;55510;49.560;19.090;2022-12-18T22:17:14;55.78;;;23.90;;
68507;SDS011;55510;49.560;19.090;2022-12-18T22:20:15;59.03;;;20.90;;
68507;SDS011;55510;49.560;19.090;2022-12-18T22:23:17;47.43;;;22.17;;
68507;SDS011;55510;49.560;19.090;2022-12-18T22:26:17;43.53;;;23.65;;
68507;SDS011;55510;49.560;19.090;2022-12-18T22:29:22;55.40;;;21.93;;
68507;SDS011;55510;49.560;19.090;2022-12-18T22:32:42;80.40;;;21.63;;
68507;SDS011;55510;49.560;19.090;2022-12-18T22:35:42;57.97;;;22.40;;
